sensor_id;sensor_type;location;lat;lon;timestamp;pressure;altitude;pressure_sealevel;temperature;humidity
66381;BME280;53177;52.648;1.214;2023-04-25T00:02:04;100972.66;;;4.11;83.45
66381;BME280;53177;52.648;1.214;2023-04-25T00:04:30;100980.50;;;4.08;82.99
66381;BME280;53177;52.648;1.214;2023-04-25T00:06:58;100979.63;;;4.06;81.78
66381;BME280;53177;52.648;1.214;2023-04-25T00:09:27;100974.44;;;4.13;82.86
66381;BME280;53177;52.648;1.214;2023-04-25T00:11:52;100983.97;;;4.07;83.45
66381;BME280;53177;52.648;1.214;2023-04-25T00:14:18;100987.47;;;4.06;82.72
66381;BME280;53177;52.648;1.214;2023-04-25T00:16:43;100991.84;;;4.08;83.26
66381;BME280;53177;52.648;1.214;2023-04-25T00:19:09;100999.72;;;4.14;82.90
66381;BME280;53177;52.648;1.214;2023-04-25T00:21:35;100998.91;;;4.21;82.53
66381;BME280;53177;52.648;1.214;2023-04-25T00:24:00;100999.72;;;4.10;83.38
66381;BME280;53177;52.648;1.214;2023-04-25T00:26:27;101007.50;;;4.04;83.21
66381;BME280;53177;52.648;1.214;2023-04-25T00:28:52;100999.63;;;4.01;83.41
66381;BME280;53177;52.648;1.214;2023-04-25T00:31:17;101004.84;;;3.98;82.64
66381;BME280;53177;52.648;1.214;2023-04-25T00:33:43;101004.91;;;4.07;82.95
66381;BME280;53177;52.648;1.214;2023-04-25T00:36:08;101004.03;;;4.08;83.39
66381;BME280;53177;52.648;1.214;2023-04-25T00:38:34;101011.00;;;4.07;81.85
66381;BME280;53177;52.648;1.214;2023-04-25T00:41:00;101010.19;;;4.10;82.59
66381;BME280;53177;52.648;1.214;2023-04-25T00:43:30;101003.06;;;3.97;82.16
66381;BME280;53177;52.648;1.214;2023-04-25T00:45:59;101000.50;;;3.98;82.63
66381;BME280;53177;52.648;1.214;2023-04-25T00:48:25;101002.22;;;3.99;82.46
66381;BME280;53177;52.648;1.214;2023-04-25T00:50:53;101003.97;;;3.97;83.62
66381;BME280;53177;52.648;1.214;2023-04-25T00:53:20;101000.47;;;3.97;82.98
66381;BME280;53177;52.648;1.214;2023-04-25T00:55:46;101007.41;;;3.91;82.80
66381;BME280;53177;52.648;1.214;2023-04-25T00:58:12;101005.66;;;3.90;82.81
66381;BME280;53177;52.648;1.214;2023-04-25T01:00:39;101009.97;;;3.88;81.97
66381;BME280;53177;52.648;1.214;2023-04-25T01:03:05;101003.03;;;3.87;82.94
66381;BME280;53177;52.648;1.214;2023-04-25T01:05:31;101004.69;;;3.79;82.40
66381;BME280;53177;52.648;1.214;2023-04-25T01:07:56;101009.84;;;3.72;82.92
66381;BME280;53177;52.648;1.214;2023-04-25T01:10:22;100999.31;;;3.66;82.58
66381;BME280;53177;52.648;1.214;2023-04-25T01:12:47;100997.63;;;3.69;83.53
66381;BME280;53177;52.648;1.214;2023-04-25T01:15:13;100997.63;;;3.69;83.57
66381;BME280;53177;52.648;1.214;2023-04-25T01:17:39;100997.50;;;3.60;83.96
66381;BME280;53177;52.648;1.214;2023-04-25T01:20:07;101004.44;;;3.57;83.88
66381;BME280;53177;52.648;1.214;2023-04-25T01:22:34;101001.88;;;3.63;84.02
66381;BME280;53177;52.648;1.214;2023-04-25T01:25:00;101002.78;;;3.63;84.38
66381;BME280;53177;52.648;1.214;2023-04-25T01:27:26;100995.69;;;3.53;84.03
66381;BME280;53177;52.648;1.214;2023-04-25T01:29:54;100993.94;;;3.52;84.52
66381;BME280;53177;52.648;1.214;2023-04-25T01:32:19;100995.56;;;3.39;84.45
66381;BME280;53177;52.648;1.214;2023-04-25T01:34:45;100997.28;;;3.37;84.50
66381;BME280;53177;52.648;1.214;2023-04-25T01:37:11;101007.66;;;3.31;86.01
66381;BME280;53177;52.648;1.214;2023-04-25T01:39:36;101009.47;;;3.35;85.51
66381;BME280;53177;52.648;1.214;2023-04-25T01:42:02;101011.31;;;3.46;84.77
66381;BME280;53177;52.648;1.214;2023-04-25T01:44:28;101017.19;;;3.26;84.49
66381;BME280;53177;52.648;1.214;2023-04-25T01:46:53;101016.28;;;3.23;84.26
66381;BME280;53177;52.648;1.214;2023-04-25T01:49:19;101027.63;;;3.25;84.32
66381;BME280;53177;52.648;1.214;2023-04-25T01:51:44;101026.03;;;3.37;83.65
66381;BME280;53177;52.648;1.214;2023-04-25T01:54:10;101033.03;;;3.41;83.22
66381;BME280;53177;52.648;1.214;2023-04-25T01:56:37;101035.66;;;3.41;83.49
66381;BME280;53177;52.648;1.214;2023-04-25T01:59:04;101036.56;;;3.45;84.11
66381;BME280;53177;52.648;1.214;2023-04-25T02:01:29;101035.72;;;3.48;83.94
66381;BME280;53177;52.648;1.214;2023-04-25T02:03:55;101035.81;;;3.54;84.09
66381;BME280;53177;52.648;1.214;2023-04-25T02:06:20;101037.56;;;3.55;84.83
66381;BME280;53177;52.648;1.214;2023-04-25T02:08:46;101035.84;;;3.60;84.84
66381;BME280;53177;52.648;1.214;2023-04-25T02:11:11;101042.00;;;3.62;84.85
66381;BME280;53177;52.648;1.214;2023-04-25T02:13:36;101040.22;;;3.62;84.48
66381;BME280;53177;52.648;1.214;2023-04-25T02:16:02;101043.75;;;3.64;84.31
66381;BME280;53177;52.648;1.214;2023-04-25T02:18:27;101042.03;;;3.68;84.25
66381;BME280;53177;52.648;1.214;2023-04-25T02:20:53;101040.28;;;3.65;84.29
66381;BME280;53177;52.648;1.214;2023-04-25T02:23:19;101040.25;;;3.64;84.96
66381;BME280;53177;52.648;1.214;2023-04-25T02:25:44;101049.00;;;3.67;85.11
66381;BME280;53177;52.648;1.214;2023-04-25T02:28:10;101048.22;;;3.74;85.55
66381;BME280;53177;52.648;1.214;2023-04-25T02:30:36;101050.00;;;3.77;86.58
66381;BME280;53177;52.648;1.214;2023-04-25T02:33:01;101050.03;;;3.84;85.73
66381;BME280;53177;52.648;1.214;2023-04-25T02:35:26;101051.06;;;3.97;85.35
66381;BME280;53177;52.648;1.214;2023-04-25T02:37:52;101054.63;;;4.07;85.28
66381;BME280;53177;52.648;1.214;2023-04-25T02:40:17;101048.53;;;4.08;85.40
66381;BME280;53177;52.648;1.214;2023-04-25T02:42:43;101056.41;;;4.09;85.51
66381;BME280;53177;52.648;1.214;2023-04-25T02:45:10;101048.53;;;4.08;85.78
66381;BME280;53177;52.648;1.214;2023-04-25T02:47:36;101048.47;;;4.03;85.26
66381;BME280;53177;52.648;1.214;2023-04-25T02:50:01;101045.03;;;4.07;85.73
66381;BME280;53177;52.648;1.214;2023-04-25T02:52:27;101044.94;;;3.97;84.44
66381;BME280;53177;52.648;1.214;2023-04-25T02:54:52;101046.75;;;4.02;84.69
66381;BME280;53177;52.648;1.214;2023-04-25T02:57:17;101049.34;;;4.04;84.87
66381;BME280;53177;52.648;1.214;2023-04-25T02:59:43;101049.34;;;4.04;84.78
66381;BME280;53177;52.648;1.214;2023-04-25T03:02:09;101038.91;;;4.02;84.26
66381;BME280;53177;52.648;1.214;2023-04-25T03:04:34;101047.41;;;3.80;85.50
66381;BME280;53177;52.648;1.214;2023-04-25T03:07:03;101040.53;;;3.88;84.99
66381;BME280;53177;52.648;1.214;2023-04-25T03:09:29;101047.41;;;3.81;84.71
66381;BME280;53177;52.648;1.214;2023-04-25T03:11:54;101049.16;;;3.82;84.96
66381;BME280;53177;52.648;1.214;2023-04-25T03:14:20;101047.34;;;3.72;85.58
66381;BME280;53177;52.648;1.214;2023-04-25T03:16:45;101042.91;;;3.67;85.14
66381;BME280;53177;52.648;1.214;2023-04-25T03:19:11;101048.03;;;3.59;85.06
66381;BME280;53177;52.648;1.214;2023-04-25T03:21:36;101053.25;;;3.56;85.48
66381;BME280;53177;52.648;1.214;2023-04-25T03:24:03;101051.56;;;3.63;85.61
66381;BME280;53177;52.648;1.214;2023-04-25T03:26:29;101059.38;;;3.60;85.28
66381;BME280;53177;52.648;1.214;2023-04-25T03:28:54;101065.16;;;3.33;88.07
66381;BME280;53177;52.648;1.214;2023-04-25T03:31:20;101082.44;;;3.20;88.28
66381;BME280;53177;52.648;1.214;2023-04-25T03:33:45;101073.66;;;3.15;89.36
66381;BME280;53177;52.648;1.214;2023-04-25T03:36:10;101074.47;;;3.10;90.95
66381;BME280;53177;52.648;1.214;2023-04-25T03:38:36;101069.22;;;3.07;91.08
66381;BME280;53177;52.648;1.214;2023-04-25T03:41:02;101062.25;;;3.09;90.86
66381;BME280;53177;52.648;1.214;2023-04-25T03:43:27;101052.78;;;3.18;90.33
66381;BME280;53177;52.648;1.214;2023-04-25T03:45:53;101060.69;;;3.21;89.80
66381;BME280;53177;52.648;1.214;2023-04-25T03:48:18;101049.38;;;3.24;88.41
66381;BME280;53177;52.648;1.214;2023-04-25T03:50:46;101052.91;;;3.29;87.50
66381;BME280;53177;52.648;1.214;2023-04-25T03:53:12;101059.94;;;3.33;86.89
66381;BME280;53177;52.648;1.214;2023-04-25T03:55:37;101065.22;;;3.36;87.90
66381;BME280;53177;52.648;1.214;2023-04-25T03:58:03;101068.66;;;3.33;87.89
66381;BME280;53177;52.648;1.214;2023-04-25T04:00:28;101074.81;;;3.35;88.22
66381;BME280;53177;52.648;1.214;2023-04-25T04:02:53;101082.53;;;3.29;88.87
66381;BME280;53177;52.648;1.214;2023-04-25T04:05:19;101082.53;;;3.29;89.67
66381;BME280;53177;52.648;1.214;2023-04-25T04:08:01;101095.69;;;3.32;90.64
66381;BME280;53177;52.648;1.214;2023-04-25T04:10:29;101095.72;;;3.37;89.37
66381;BME280;53177;52.648;1.214;2023-04-25T04:12:58;101095.59;;;3.25;89.61
66381;BME280;53177;52.648;1.214;2023-04-25T04:15:26;101096.38;;;3.19;90.39
66381;BME280;53177;52.648;1.214;2023-04-25T04:17:52;101099.78;;;3.14;90.49
66381;BME280;53177;52.648;1.214;2023-04-25T04:20:19;101103.41;;;3.25;90.03
66381;BME280;53177;52.648;1.214;2023-04-25T04:25:32;101098.28;;;3.32;89.23
66381;BME280;53177;52.648;1.214;2023-04-25T04:27:59;101098.25;;;3.31;88.72
66381;BME280;53177;52.648;1.214;2023-04-25T04:30:26;101096.41;;;3.21;89.55
66381;BME280;53177;52.648;1.214;2023-04-25T04:32:55;101102.38;;;3.12;89.60
66381;BME280;53177;52.648;1.214;2023-04-25T04:35:21;101108.53;;;3.17;89.56
66381;BME280;53177;52.648;1.214;2023-04-25T04:37:46;101104.94;;;3.09;89.90
66381;BME280;53177;52.648;1.214;2023-04-25T04:40:14;101111.66;;;2.90;91.25
66381;BME280;53177;52.648;1.214;2023-04-25T04:42:41;101108.34;;;3.02;90.80
66381;BME280;53177;52.648;1.214;2023-04-25T04:45:08;101109.22;;;3.04;90.31
66381;BME280;53177;52.648;1.214;2023-04-25T04:47:33;101112.56;;;2.94;90.55
66381;BME280;53177;52.648;1.214;2023-04-25T04:49:59;101114.38;;;3.00;90.46
66381;BME280;53177;52.648;1.214;2023-04-25T04:52:25;101117.16;;;3.10;90.23
66381;BME280;53177;52.648;1.214;2023-04-25T04:54:50;101116.16;;;3.02;90.28
66381;BME280;53177;52.648;1.214;2023-04-25T04:57:15;101128.97;;;2.85;91.07
66381;BME280;53177;52.648;1.214;2023-04-25T04:59:41;101129.13;;;2.94;91.07
66381;BME280;53177;52.648;1.214;2023-04-25T05:02:07;101134.31;;;2.91;90.91
66381;BME280;53177;52.648;1.214;2023-04-25T05:04:32;101140.38;;;2.92;90.55
66381;BME280;53177;52.648;1.214;2023-04-25T05:06:58;101140.25;;;2.83;91.13
66381;BME280;53177;52.648;1.214;2023-04-25T05:09:23;101139.28;;;2.78;91.93
66381;BME280;53177;52.648;1.214;2023-04-25T05:11:51;101151.34;;;2.68;92.44
66381;BME280;53177;52.648;1.214;2023-04-25T05:14:16;101153.03;;;2.65;92.82
66381;BME280;53177;52.648;1.214;2023-04-25T05:16:43;101150.63;;;2.77;92.16
66381;BME280;53177;52.648;1.214;2023-04-25T05:19:08;101152.09;;;2.63;94.71
66381;BME280;53177;52.648;1.214;2023-04-25T05:21:34;101150.41;;;2.65;94.55
66381;BME280;53177;52.648;1.214;2023-04-25T05:24:00;101151.34;;;2.68;94.84
66381;BME280;53177;52.648;1.214;2023-04-25T05:26:25;101154.06;;;2.77;94.70
66381;BME280;53177;52.648;1.214;2023-04-25T05:28:51;101154.16;;;2.80;94.78
66381;BME280;53177;52.648;1.214;2023-04-25T05:31:16;101161.94;;;2.79;95.27
66381;BME280;53177;52.648;1.214;2023-04-25T05:33:42;101164.72;;;2.88;95.27
66381;BME280;53177;52.648;1.214;2023-04-25T05:36:07;101159.53;;;2.92;95.51
66381;BME280;53177;52.648;1.214;2023-04-25T05:38:33;101163.91;;;2.93;95.23
66381;BME280;53177;52.648;1.214;2023-04-25T05:40:59;101171.03;;;3.02;95.45
66381;BME280;53177;52.648;1.214;2023-04-25T05:43:24;101173.84;;;3.16;94.88
66381;BME280;53177;52.648;1.214;2023-04-25T05:45:49;101178.28;;;3.21;94.85
66381;BME280;53177;52.648;1.214;2023-04-25T05:48:15;101175.72;;;3.24;95.01
66381;BME280;53177;52.648;1.214;2023-04-25T05:50:40;101176.63;;;3.29;95.01
66381;BME280;53177;52.648;1.214;2023-04-25T05:53:06;101181.94;;;3.32;95.06
66381;BME280;53177;52.648;1.214;2023-04-25T05:55:31;101180.22;;;3.36;95.23
66381;BME280;53177;52.648;1.214;2023-04-25T05:57:57;101182.00;;;3.38;94.87
66381;BME280;53177;52.648;1.214;2023-04-25T06:00:22;101183.81;;;3.44;95.06
66381;BME280;53177;52.648;1.214;2023-04-25T06:02:48;101191.84;;;3.59;95.05
66381;BME280;53177;52.648;1.214;2023-04-25T06:05:13;101197.22;;;3.68;94.38
66381;BME280;53177;52.648;1.214;2023-04-25T06:07:38;101184.22;;;3.73;94.80
66381;BME280;53177;52.648;1.214;2023-04-25T06:10:04;101187.63;;;3.69;93.98
66381;BME280;53177;52.648;1.214;2023-04-25T06:12:32;101196.31;;;3.66;94.02
66381;BME280;53177;52.648;1.214;2023-04-25T06:14:58;101194.56;;;3.65;92.97
66381;BME280;53177;52.648;1.214;2023-04-25T06:17:23;101197.19;;;3.65;92.88
66381;BME280;53177;52.648;1.214;2023-04-25T06:19:49;101198.91;;;3.66;92.34
66381;BME280;53177;52.648;1.214;2023-04-25T06:22:14;101206.88;;;3.72;91.72
66381;BME280;53177;52.648;1.214;2023-04-25T06:24:40;101210.47;;;3.80;91.20
66381;BME280;53177;52.648;1.214;2023-04-25T06:27:05;101218.41;;;3.88;90.95
66381;BME280;53177;52.648;1.214;2023-04-25T06:29:30;101217.63;;;3.95;90.42
66381;BME280;53177;52.648;1.214;2023-04-25T06:31:56;101225.50;;;4.00;90.00
66381;BME280;53177;52.648;1.214;2023-04-25T06:34:22;101228.19;;;4.03;89.63
66381;BME280;53177;52.648;1.214;2023-04-25T06:36:47;101230.78;;;4.03;89.68
66381;BME280;53177;52.648;1.214;2023-04-25T06:39:13;101226.50;;;4.09;89.74
66381;BME280;53177;52.648;1.214;2023-04-25T06:41:38;101228.47;;;4.28;88.94
66381;BME280;53177;52.648;1.214;2023-04-25T06:44:03;101227.63;;;4.31;89.90
66381;BME280;53177;52.648;1.214;2023-04-25T06:46:29;101234.56;;;4.29;89.89
66381;BME280;53177;52.648;1.214;2023-04-25T06:48:54;101234.56;;;4.27;90.43
66381;BME280;53177;52.648;1.214;2023-04-25T06:51:20;101233.66;;;4.24;89.75
66381;BME280;53177;52.648;1.214;2023-04-25T06:53:45;101238.06;;;4.28;91.20
66381;BME280;53177;52.648;1.214;2023-04-25T06:56:11;101249.34;;;4.25;91.06
66381;BME280;53177;52.648;1.214;2023-04-25T06:58:36;101252.94;;;4.33;90.81
66381;BME280;53177;52.648;1.214;2023-04-25T07:01:02;101255.56;;;4.32;91.01
66381;BME280;53177;52.648;1.214;2023-04-25T07:03:27;101256.47;;;4.37;90.90
66381;BME280;53177;52.648;1.214;2023-04-25T07:05:53;101258.25;;;4.41;89.98
66381;BME280;53177;52.648;1.214;2023-04-25T07:08:18;101252.13;;;4.40;89.82
66381;BME280;53177;52.648;1.214;2023-04-25T07:10:43;101246.19;;;4.55;89.19
66381;BME280;53177;52.648;1.214;2023-04-25T07:13:11;101247.25;;;4.72;89.38
66381;BME280;53177;52.648;1.214;2023-04-25T07:15:36;101250.03;;;4.92;87.55
66381;BME280;53177;52.648;1.214;2023-04-25T07:18:02;101248.47;;;5.15;87.71
66381;BME280;53177;52.648;1.214;2023-04-25T07:20:27;101247.78;;;5.40;85.64
66381;BME280;53177;52.648;1.214;2023-04-25T07:22:53;101232.16;;;5.59;82.83
66381;BME280;53177;52.648;1.214;2023-04-25T07:25:19;101246.22;;;5.70;81.03
66381;BME280;53177;52.648;1.214;2023-04-25T07:27:45;101247.09;;;5.67;81.37
66381;BME280;53177;52.648;1.214;2023-04-25T07:30:10;101243.50;;;5.52;81.27
66381;BME280;53177;52.648;1.214;2023-04-25T07:32:37;101252.09;;;5.31;82.93
66381;BME280;53177;52.648;1.214;2023-04-25T07:35:02;101257.19;;;5.10;83.20
66381;BME280;53177;52.648;1.214;2023-04-25T07:37:28;101254.44;;;4.99;85.24
66381;BME280;53177;52.648;1.214;2023-04-25T07:39:53;101251.16;;;5.23;86.78
66381;BME280;53177;52.648;1.214;2023-04-25T07:42:19;101251.31;;;5.47;87.26
66381;BME280;53177;52.648;1.214;2023-04-25T07:44:44;101259.28;;;5.62;87.92
66381;BME280;53177;52.648;1.214;2023-04-25T07:47:10;101266.28;;;5.57;84.33
66381;BME280;53177;52.648;1.214;2023-04-25T07:49:36;101264.56;;;5.64;85.51
66381;BME280;53177;52.648;1.214;2023-04-25T07:52:03;101265.38;;;5.54;84.73
66381;BME280;53177;52.648;1.214;2023-04-25T07:54:29;101261.81;;;5.47;85.71
66381;BME280;53177;52.648;1.214;2023-04-25T07:56:55;101274.94;;;5.46;86.10
66381;BME280;53177;52.648;1.214;2023-04-25T07:59:21;101275.75;;;5.40;84.64
66381;BME280;53177;52.648;1.214;2023-04-25T08:01:47;101300.13;;;5.27;85.83
66381;BME280;53177;52.648;1.214;2023-04-25T08:04:12;101306.09;;;5.06;87.68
66381;BME280;53177;52.648;1.214;2023-04-25T08:06:37;101307.44;;;4.68;88.82
66381;BME280;53177;52.648;1.214;2023-04-25T08:09:03;101309.16;;;4.64;90.93
66381;BME280;53177;52.648;1.214;2023-04-25T08:11:29;101314.31;;;4.57;92.41
66381;BME280;53177;52.648;1.214;2023-04-25T08:13:58;101317.75;;;4.53;92.44
66381;BME280;53177;52.648;1.214;2023-04-25T08:16:23;101327.41;;;4.57;92.34
66381;BME280;53177;52.648;1.214;2023-04-25T08:18:50;101318.81;;;4.70;91.55
66381;BME280;53177;52.648;1.214;2023-04-25T08:21:15;101324.13;;;4.76;91.01
66381;BME280;53177;52.648;1.214;2023-04-25T08:23:40;101336.50;;;4.92;91.66
66381;BME280;53177;52.648;1.214;2023-04-25T08:26:06;101333.09;;;5.01;91.20
66381;BME280;53177;52.648;1.214;2023-04-25T08:28:32;101331.44;;;5.10;89.81
66381;BME280;53177;52.648;1.214;2023-04-25T08:30:57;101326.19;;;5.09;89.03
66381;BME280;53177;52.648;1.214;2023-04-25T08:33:23;101323.66;;;5.19;89.52
66381;BME280;53177;52.648;1.214;2023-04-25T08:35:48;101330.75;;;5.28;89.42
66381;BME280;53177;52.648;1.214;2023-04-25T08:38:14;101328.88;;;5.18;87.45
66381;BME280;53177;52.648;1.214;2023-04-25T08:40:40;101329.84;;;5.26;86.80
66381;BME280;53177;52.648;1.214;2023-04-25T08:43:06;101339.59;;;5.39;85.81
66381;BME280;53177;52.648;1.214;2023-04-25T08:45:39;101340.53;;;5.52;86.91
66381;BME280;53177;52.648;1.214;2023-04-25T08:48:10;101345.72;;;5.44;85.30
66381;BME280;53177;52.648;1.214;2023-04-25T08:50:50;101340.41;;;5.35;84.97
66381;BME280;53177;52.648;1.214;2023-04-25T08:53:16;101345.69;;;5.38;85.18
66381;BME280;53177;52.648;1.214;2023-04-25T08:55:45;101351.88;;;5.46;85.06
66381;BME280;53177;52.648;1.214;2023-04-25T08:58:12;101354.59;;;5.57;84.71
66381;BME280;53177;52.648;1.214;2023-04-25T09:00:38;101355.41;;;5.51;83.45
66381;BME280;53177;52.648;1.214;2023-04-25T09:03:04;101367.63;;;5.49;83.62
66381;BME280;53177;52.648;1.214;2023-04-25T09:05:34;101378.78;;;5.25;86.74
66381;BME280;53177;52.648;1.214;2023-04-25T09:08:01;101386.31;;;4.94;88.91
66381;BME280;53177;52.648;1.214;2023-04-25T09:10:27;101390.63;;;4.88;90.05
66381;BME280;53177;52.648;1.214;2023-04-25T09:15:27;101408.34;;;4.38;89.23
66381;BME280;53177;52.648;1.214;2023-04-25T09:17:59;101408.00;;;4.14;90.42
66381;BME280;53177;52.648;1.214;2023-04-25T09:20:25;101413.34;;;4.20;91.68
66381;BME280;53177;52.648;1.214;2023-04-25T09:23:04;101421.25;;;4.25;92.30
66381;BME280;53177;52.648;1.214;2023-04-25T09:25:34;101417.81;;;4.27;92.25
66381;BME280;53177;52.648;1.214;2023-04-25T09:28:04;101422.28;;;4.36;90.56
66381;BME280;53177;52.648;1.214;2023-04-25T09:30:31;101424.06;;;4.40;90.12
66381;BME280;53177;52.648;1.214;2023-04-25T09:33:08;101429.50;;;4.55;89.70
66381;BME280;53177;52.648;1.214;2023-04-25T09:35:38;101430.53;;;4.65;89.77
66381;BME280;53177;52.648;1.214;2023-04-25T09:38:12;101426.41;;;4.88;89.13
66381;BME280;53177;52.648;1.214;2023-04-25T09:40:45;101427.44;;;4.98;87.02
66381;BME280;53177;52.648;1.214;2023-04-25T09:43:21;101420.63;;;5.13;86.38
66381;BME280;53177;52.648;1.214;2023-04-25T09:45:47;101417.53;;;5.54;85.43
66381;BME280;53177;52.648;1.214;2023-04-25T09:48:20;101411.69;;;5.88;84.84
66381;BME280;53177;52.648;1.214;2023-04-25T09:53:43;101416.41;;;6.34;76.91
66381;BME280;53177;52.648;1.214;2023-04-25T09:56:10;101418.78;;;6.03;75.85
66381;BME280;53177;52.648;1.214;2023-04-25T09:58:37;101417.91;;;5.95;78.78
66381;BME280;53177;52.648;1.214;2023-04-25T10:01:05;101413.50;;;5.94;76.60
66381;BME280;53177;52.648;1.214;2023-04-25T10:03:32;101413.63;;;6.15;78.79
66381;BME280;53177;52.648;1.214;2023-04-25T10:06:03;101424.19;;;6.25;76.94
66381;BME280;53177;52.648;1.214;2023-04-25T10:08:37;101419.91;;;6.35;75.03
66381;BME280;53177;52.648;1.214;2023-04-25T10:11:07;101416.47;;;6.51;75.34
66381;BME280;53177;52.648;1.214;2023-04-25T10:13:34;101412.13;;;6.56;75.29
66381;BME280;53177;52.648;1.214;2023-04-25T10:16:02;101415.69;;;6.70;76.00
66381;BME280;53177;52.648;1.214;2023-04-25T10:18:29;101422.72;;;6.80;75.83
66381;BME280;53177;52.648;1.214;2023-04-25T10:20:57;101429.78;;;6.89;73.86
66381;BME280;53177;52.648;1.214;2023-04-25T10:23:23;101427.16;;;6.91;73.06
66381;BME280;53177;52.648;1.214;2023-04-25T10:25:50;101427.22;;;7.04;74.57
66381;BME280;53177;52.648;1.214;2023-04-25T10:28:16;101429.88;;;7.25;72.34
66381;BME280;53177;52.648;1.214;2023-04-25T10:33:39;101421.13;;;7.20;72.32
66381;BME280;53177;52.648;1.214;2023-04-25T10:36:33;101437.78;;;7.27;73.55
66381;BME280;53177;52.648;1.214;2023-04-25T10:39:03;101443.03;;;7.25;71.68
66381;BME280;53177;52.648;1.214;2023-04-25T10:41:45;101447.38;;;7.14;71.95
66381;BME280;53177;52.648;1.214;2023-04-25T10:44:11;101457.78;;;6.84;74.19
66381;BME280;53177;52.648;1.214;2023-04-25T10:46:37;101449.81;;;6.61;76.87
66381;BME280;53177;52.648;1.214;2023-04-25T10:49:02;101455.84;;;6.42;75.33
66381;BME280;53177;52.648;1.214;2023-04-25T10:51:32;101459.31;;;6.38;76.19
66381;BME280;53177;52.648;1.214;2023-04-25T10:54:01;101452.34;;;6.45;75.12
66381;BME280;53177;52.648;1.214;2023-04-25T10:56:27;101448.06;;;6.57;76.13
66381;BME280;53177;52.648;1.214;2023-04-25T11:01:38;101454.31;;;6.91;74.86
66381;BME280;53177;52.648;1.214;2023-04-25T11:04:04;101457.00;;;7.05;73.08
66381;BME280;53177;52.648;1.214;2023-04-25T11:06:46;101444.69;;;6.92;72.57
66381;BME280;53177;52.648;1.214;2023-04-25T11:09:16;101456.22;;;7.27;74.01
66381;BME280;53177;52.648;1.214;2023-04-25T11:11:42;101446.59;;;7.35;72.94
66381;BME280;53177;52.648;1.214;2023-04-25T11:14:08;101450.06;;;7.26;70.96
66381;BME280;53177;52.648;1.214;2023-04-25T11:16:33;101457.91;;;7.08;71.42
66381;BME280;53177;52.648;1.214;2023-04-25T11:18:58;101456.09;;;6.95;71.60
66381;BME280;53177;52.648;1.214;2023-04-25T11:21:27;101443.88;;;7.05;71.41
66381;BME280;53177;52.648;1.214;2023-04-25T11:23:54;101441.25;;;7.18;72.53
66381;BME280;53177;52.648;1.214;2023-04-25T11:26:21;101442.16;;;7.22;71.02
66381;BME280;53177;52.648;1.214;2023-04-25T11:28:49;101435.19;;;7.38;72.19
66381;BME280;53177;52.648;1.214;2023-04-25T11:31:14;101440.34;;;7.01;70.36
66381;BME280;53177;52.648;1.214;2023-04-25T11:33:40;101436.75;;;6.84;71.32
66381;BME280;53177;52.648;1.214;2023-04-25T11:36:06;101437.72;;;7.03;70.64
66381;BME280;53177;52.648;1.214;2023-04-25T11:38:31;101442.97;;;7.03;69.92
66381;BME280;53177;52.648;1.214;2023-04-25T11:40:57;101443.00;;;7.12;68.67
66381;BME280;53177;52.648;1.214;2023-04-25T11:43:22;101445.72;;;7.42;67.60
66381;BME280;53177;52.648;1.214;2023-04-25T11:45:51;101444.00;;;7.82;67.44
66381;BME280;53177;52.648;1.214;2023-04-25T11:48:18;101450.13;;;8.34;66.18
66381;BME280;53177;52.648;1.214;2023-04-25T11:50:43;101454.44;;;8.65;65.77
66381;BME280;53177;52.648;1.214;2023-04-25T11:53:09;101447.50;;;8.32;67.11
66381;BME280;53177;52.648;1.214;2023-04-25T11:55:35;101455.41;;;7.75;67.62
66381;BME280;53177;52.648;1.214;2023-04-25T11:58:01;101461.44;;;7.15;72.21
66381;BME280;53177;52.648;1.214;2023-04-25T12:00:27;101483.13;;;6.70;75.33
66381;BME280;53177;52.648;1.214;2023-04-25T12:02:54;101482.03;;;6.31;78.03
66381;BME280;53177;52.648;1.214;2023-04-25T12:05:20;101474.91;;;6.12;80.54
66381;BME280;53177;52.648;1.214;2023-04-25T12:07:48;101465.34;;;6.23;81.85
66381;BME280;53177;52.648;1.214;2023-04-25T12:10:15;101461.97;;;6.41;79.68
66381;BME280;53177;52.648;1.214;2023-04-25T12:12:42;101460.44;;;6.79;79.26
66381;BME280;53177;52.648;1.214;2023-04-25T12:15:16;101454.38;;;7.00;77.24
66381;BME280;53177;52.648;1.214;2023-04-25T12:17:48;101457.94;;;7.20;78.57
66381;BME280;53177;52.648;1.214;2023-04-25T12:20:16;101450.13;;;7.52;78.97
66381;BME280;53177;52.648;1.214;2023-04-25T12:22:42;101451.91;;;7.90;76.89
66381;BME280;53177;52.648;1.214;2023-04-25T12:28:09;101461.28;;;9.10;74.57
66381;BME280;53177;52.648;1.214;2023-04-25T12:31:01;101465.88;;;8.72;72.85
66381;BME280;53177;52.648;1.214;2023-04-25T12:33:30;101458.03;;;8.34;73.32
66381;BME280;53177;52.648;1.214;2023-04-25T12:35:56;101464.16;;;7.95;72.61
66381;BME280;53177;52.648;1.214;2023-04-25T12:38:26;101466.81;;;8.00;71.10
66381;BME280;53177;52.648;1.214;2023-04-25T12:40:53;101463.28;;;8.07;70.93
66381;BME280;53177;52.648;1.214;2023-04-25T12:43:19;101463.31;;;8.08;69.24
66381;BME280;53177;52.648;1.214;2023-04-25T12:45:50;101465.06;;;8.00;69.06
66381;BME280;53177;52.648;1.214;2023-04-25T12:48:16;101467.69;;;7.80;67.00
66381;BME280;53177;52.648;1.214;2023-04-25T12:50:42;101470.31;;;7.71;67.47
66381;BME280;53177;52.648;1.214;2023-04-25T12:53:08;101467.69;;;7.67;69.11
66381;BME280;53177;52.648;1.214;2023-04-25T12:55:33;101468.56;;;7.70;68.84
66381;BME280;53177;52.648;1.214;2023-04-25T12:57:59;101462.44;;;8.12;67.14
66381;BME280;53177;52.648;1.214;2023-04-25T13:00:24;101471.22;;;8.08;64.23
66381;BME280;53177;52.648;1.214;2023-04-25T13:02:51;101472.97;;;7.87;63.38
66381;BME280;53177;52.648;1.214;2023-04-25T13:05:17;101467.69;;;7.93;62.60
66381;BME280;53177;52.648;1.214;2023-04-25T13:07:42;101463.28;;;8.17;63.09
66381;BME280;53177;52.648;1.214;2023-04-25T13:10:08;101460.66;;;8.22;62.59
66381;BME280;53177;52.648;1.214;2023-04-25T13:12:33;101455.34;;;8.46;62.44
66381;BME280;53177;52.648;1.214;2023-04-25T13:14:58;101466.66;;;8.89;61.21